This is the latest recevied weather packets stored in our database for station/object KAGO. If no packets are shown the sender has not sent any weather packets the latest 10 day(s).
| Time | Temp. | Humidity | Pressure | Rain* | Wind** | Luminosity | Snow |
|---|---|---|---|---|---|---|---|
| 1777866208 | 15.56° C | 72% | 1016.3 hPa | - | - | - | - |
| 1777865607 | 15.56° C | 72% | 1016.3 hPa | - | - | - | - |
| 1777865011 | 15.56° C | 72% | 1016.3 hPa | - | - | - | - |
| 1777864407 | 16.67° C | 67% | 1016.3 hPa | - | - | - | - |
| 1777863809 | 16.67° C | 67% | 1016.3 hPa | - | - | - | - |
| 1777863211 | 15.56° C | 77% | 1015.9 hPa | - | - | - | - |
| 1777862605 | 15.56° C | 77% | 1015.9 hPa | - | - | - | - |
| 1777862014 | 15.56° C | 77% | 1015.9 hPa | - | - | - | - |
| 1777861411 | 15.56° C | 77% | 1015.9 hPa | - | - | - | - |
| 1777860807 | 16.67° C | 72% | 1015.6 hPa | - | - | - | - |
| 1777860214 | 16.67° C | 72% | 1015.6 hPa | - | - | - | - |
| 1777859610 | 16.67° C | 77% | 1015.6 hPa | - | - | - | - |
| 1777859010 | 16.67° C | 77% | 1015.6 hPa | - | - | - | - |
| 1777858413 | 17.78° C | 72% | 1015.6 hPa | - | - | - | - |
| 1777857814 | 17.78° C | 72% | 1015.6 hPa | - | - | - | - |
| 1777857213 | 20° C | 60% | 1015.2 hPa | - | - | - | - |
| 1777856614 | 20° C | 60% | 1015.2 hPa | - | - | - | - |
| 1777856015 | 21.67° C | 53% | 1015.2 hPa | - | - | - | - |
| 1777855412 | 21.67° C | 53% | 1015.2 hPa | - | - | - | - |
| 1777854817 | 23.89° C | 47% | 1015.6 hPa | - | - | - | - |
| 1777854210 | 25° C | 38% | 1015.6 hPa | - | - | - | - |
| 1777853608 | 25° C | 38% | 1015.6 hPa | - | - | - | - |
| 1777853013 | 25° C | 38% | 1015.6 hPa | - | - | - | - |
| 1777852412 | 25.56° C | 36% | 1015.6 hPa | - | - | - | - |
| 1777851810 | 25.56° C | 36% | 1015.6 hPa | - | - | - | - |
* Rain since midnight (hover to see other rain measurements)
** Current wind speed in m/s (hover to see current wind gust speed)